createdAt,value
2022-08-04T00:01:10.891Z,3.80
2022-08-04T00:03:45.011Z,4.38
2022-08-04T00:06:16.399Z,4.13
2022-08-04T00:08:47.050Z,4.20
2022-08-04T00:11:17.209Z,4.22
2022-08-04T00:13:58.117Z,4.53
2022-08-04T00:16:34.885Z,4.55
2022-08-04T00:19:09.428Z,4.32
2022-08-04T00:21:39.858Z,4.72
2022-08-04T00:24:10.398Z,4.15
2022-08-04T00:26:41.645Z,4.40
2022-08-04T00:29:12.097Z,4.53
2022-08-04T00:31:56.814Z,3.97
2022-08-04T00:34:27.002Z,4.10
2022-08-04T00:36:55.797Z,3.55
2022-08-04T00:39:24.577Z,3.80
2022-08-04T00:42:11.688Z,4.25
2022-08-04T00:44:47.649Z,4.55
2022-08-04T00:47:21.569Z,4.22
2022-08-04T00:50:00.008Z,4.82
2022-08-04T00:52:35.678Z,4.10
2022-08-04T00:55:09.339Z,4.80
2022-08-04T00:57:44.711Z,4.68
2022-08-04T01:00:15.206Z,4.53
2022-08-04T01:02:51.078Z,4.20
2022-08-04T01:05:22.883Z,4.03
2022-08-04T01:08:06.099Z,4.28
2022-08-04T01:10:48.891Z,4.65
2022-08-04T01:13:28.403Z,4.40
2022-08-04T01:16:02.082Z,4.53
2022-08-04T01:18:35.385Z,4.65
2022-08-04T01:21:08.119Z,4.75
2022-08-04T01:23:54.478Z,5.55
2022-08-04T01:26:43.220Z,4.65
2022-08-04T01:29:24.528Z,4.60
2022-08-04T01:32:01.822Z,4.45
2022-08-04T01:34:31.708Z,4.65
2022-08-04T01:37:01.943Z,4.30
2022-08-04T01:39:44.046Z,4.57
2022-08-04T01:42:31.974Z,4.70
2022-08-04T01:45:02.925Z,4.80
2022-08-04T01:47:32.343Z,4.70
2022-08-04T01:50:06.240Z,4.25
2022-08-04T01:52:35.743Z,5.07
2022-08-04T01:55:05.915Z,5.28
2022-08-04T01:57:38.481Z,4.85
2022-08-04T02:00:10.062Z,5.20
2022-08-04T02:02:38.498Z,4.75
2022-08-04T02:05:07.314Z,5.40
2022-08-04T02:07:55.076Z,5.88
2022-08-04T02:10:28.902Z,5.18
2022-08-04T02:13:03.436Z,5.40
2022-08-04T02:15:41.603Z,5.78
2022-08-04T02:18:14.208Z,5.18
2022-08-04T02:20:45.766Z,5.50
2022-08-04T02:23:16.380Z,5.10
2022-08-04T02:25:47.896Z,5.00
2022-08-04T02:28:24.311Z,4.70
2022-08-04T02:30:58.566Z,5.20
2022-08-04T02:33:31.572Z,5.50
2022-08-04T02:36:02.247Z,4.55
2022-08-04T02:38:38.845Z,4.70
2022-08-04T02:41:07.791Z,4.93
2022-08-04T02:43:50.764Z,4.78
2022-08-04T02:46:23.223Z,4.60
2022-08-04T02:48:53.041Z,4.85
2022-08-04T02:51:23.638Z,4.90
2022-08-04T02:53:54.506Z,5.05
2022-08-04T02:56:23.987Z,4.45
2022-08-04T02:58:53.987Z,4.97
2022-08-04T03:01:25.158Z,4.90
2022-08-04T03:04:00.194Z,4.53
2022-08-04T03:06:50.283Z,5.10
2022-08-04T03:09:27.283Z,4.53
2022-08-04T03:12:17.510Z,5.07
2022-08-04T03:14:54.753Z,4.93
2022-08-04T03:17:52.885Z,5.18
2022-08-04T03:20:47.206Z,5.13
2022-08-04T03:23:23.763Z,4.78
2022-08-04T03:26:01.481Z,5.03
2022-08-04T03:29:00.667Z,4.50
2022-08-04T03:31:49.847Z,4.70
2022-08-04T03:34:30.001Z,5.53
2022-08-04T03:37:16.367Z,4.80
2022-08-04T03:40:02.559Z,4.75
2022-08-04T03:43:11.169Z,5.00
2022-08-04T03:46:17.194Z,5.28
2022-08-04T03:48:56.908Z,5.47
2022-08-04T03:51:52.587Z,5.22
2022-08-04T03:54:36.724Z,5.07
2022-08-04T03:57:18.050Z,5.38
2022-08-04T03:59:59.422Z,4.50
2022-08-04T04:02:46.277Z,5.63
2022-08-04T04:05:28.386Z,5.35
2022-08-04T04:08:19.441Z,5.80
2022-08-04T04:11:17.875Z,5.68
2022-08-04T04:13:52.243Z,5.35
2022-08-04T04:16:30.838Z,5.72
2022-08-04T04:19:15.741Z,5.53
2022-08-04T04:22:02.145Z,5.55
2022-08-04T04:24:40.719Z,4.95
2022-08-04T04:27:11.631Z,5.53
2022-08-04T04:29:54.859Z,5.57
2022-08-04T04:32:25.333Z,5.00
2022-08-04T04:35:04.060Z,5.32
2022-08-04T04:37:39.146Z,5.72
2022-08-04T04:40:22.532Z,5.03
2022-08-04T04:43:04.353Z,5.72
2022-08-04T04:45:35.920Z,5.88
2022-08-04T04:48:10.776Z,6.00
2022-08-04T04:50:53.523Z,6.25
2022-08-04T04:53:25.498Z,6.40
2022-08-04T04:55:58.515Z,6.53
2022-08-04T04:58:27.493Z,6.20
2022-08-04T05:01:02.718Z,6.60
2022-08-04T05:03:41.487Z,5.65
2022-08-04T05:06:12.875Z,5.90
2022-08-04T05:08:58.276Z,6.50
2022-08-04T05:11:42.268Z,6.43
2022-08-04T05:14:35.207Z,6.43
2022-08-04T05:17:04.946Z,6.60
2022-08-04T05:19:40.128Z,5.70
2022-08-04T05:22:14.447Z,5.93
2022-08-04T05:24:44.939Z,6.40
2022-08-04T05:27:16.943Z,6.22
2022-08-04T05:29:48.579Z,6.10
2022-08-04T05:32:18.022Z,5.68
2022-08-04T05:34:50.198Z,5.68
2022-08-04T05:37:20.818Z,6.00
2022-08-04T05:39:51.576Z,6.35
2022-08-04T05:42:21.542Z,5.78
2022-08-04T05:44:51.862Z,5.03
2022-08-04T05:47:22.621Z,5.40
2022-08-04T05:50:01.399Z,5.95
2022-08-04T05:52:32.230Z,5.18
2022-08-04T05:55:01.304Z,5.53
2022-08-04T05:57:31.679Z,5.57
2022-08-04T06:00:10.534Z,5.30
2022-08-04T06:02:51.432Z,4.88
2022-08-04T06:05:20.458Z,4.90
2022-08-04T06:08:07.808Z,4.15
2022-08-04T06:10:39.757Z,4.40
2022-08-04T06:13:48.650Z,4.60
2022-08-04T06:16:01.374Z,4.40
2022-08-04T06:18:35.333Z,4.80
2022-08-04T06:21:20.726Z,3.92
2022-08-04T06:23:53.613Z,4.00
2022-08-04T06:26:29.781Z,4.30
2022-08-04T06:29:00.044Z,4.20
2022-08-04T06:32:28.899Z,3.85
2022-08-04T06:34:35.221Z,4.07
2022-08-04T06:37:03.761Z,3.80
2022-08-04T06:39:34.923Z,3.45
2022-08-04T06:42:21.431Z,3.50
2022-08-04T06:44:53.233Z,3.40
2022-08-04T06:47:22.650Z,3.28
2022-08-04T06:51:24.724Z,3.20
2022-08-04T06:52:41.222Z,3.13
2022-08-04T06:55:10.040Z,3.10
2022-08-04T06:57:38.887Z,3.33
2022-08-04T07:00:11.291Z,2.80
2022-08-04T07:02:41.554Z,2.67
2022-08-04T07:05:10.461Z,3.20
2022-08-04T07:07:58.104Z,2.67
2022-08-04T07:10:27.974Z,2.78
2022-08-04T07:12:57.282Z,2.40
2022-08-04T07:15:27.729Z,2.80
2022-08-04T07:18:00.113Z,2.65
2022-08-04T07:20:34.556Z,2.90
2022-08-04T07:23:04.615Z,3.10
2022-08-04T07:25:59.888Z,2.70
2022-08-04T07:28:22.993Z,3.08
2022-08-04T07:30:54.519Z,2.22
2022-08-04T07:33:37.652Z,2.28
2022-08-04T07:36:09.699Z,2.45
2022-08-04T07:38:50.912Z,2.67
2022-08-04T07:41:40.676Z,2.45
2022-08-04T07:44:10.771Z,2.42
2022-08-04T07:46:40.840Z,2.40
2022-08-04T07:49:09.273Z,2.30
2022-08-04T07:51:38.150Z,2.40
2022-08-04T07:54:07.847Z,2.75
2022-08-04T07:56:37.795Z,2.47
2022-08-04T07:59:06.995Z,2.58
2022-08-04T08:01:37.143Z,2.30
2022-08-04T08:04:10.039Z,2.60
2022-08-04T08:06:43.093Z,2.40
2022-08-04T08:09:14.480Z,2.50
2022-08-04T08:12:36.518Z,2.33
2022-08-04T08:14:32.562Z,2.40
2022-08-04T08:17:02.678Z,2.20
2022-08-04T08:19:32.796Z,2.33
2022-08-04T08:22:02.138Z,2.22
2022-08-04T08:24:30.962Z,2.25
2022-08-04T08:27:00.406Z,2.35
2022-08-04T08:29:29.825Z,2.30
2022-08-04T08:32:04.070Z,2.20
2022-08-04T08:34:37.258Z,2.35
2022-08-04T08:37:08.895Z,2.20
2022-08-04T08:39:40.768Z,2.05
2022-08-04T08:42:30.110Z,2.00
2022-08-04T08:45:22.473Z,2.40
2022-08-04T08:48:06.349Z,2.40
2022-08-04T08:50:47.032Z,2.10
2022-08-04T08:53:29.846Z,2.50
2022-08-04T08:56:11.782Z,2.50
2022-08-04T08:58:48.635Z,2.30
2022-08-04T09:01:25.072Z,2.13
2022-08-04T09:04:01.405Z,2.55
2022-08-04T09:06:55.655Z,2.30
2022-08-04T09:09:32.207Z,2.10
2022-08-04T09:12:08.885Z,2.15
2022-08-04T09:14:40.599Z,2.30
2022-08-04T09:17:15.789Z,2.15
2022-08-04T09:19:46.727Z,2.30
2022-08-04T09:22:21.266Z,2.35
2022-08-04T09:24:53.128Z,2.22
2022-08-04T09:27:22.586Z,2.35
2022-08-04T09:29:55.218Z,2.20
2022-08-04T09:32:30.406Z,2.25
2022-08-04T09:35:15.882Z,2.30
2022-08-04T09:37:48.852Z,2.17
2022-08-04T09:40:31.529Z,2.28
2022-08-04T09:43:13.832Z,2.13
2022-08-04T09:45:48.190Z,2.22
2022-08-04T09:48:21.884Z,2.38
2022-08-04T09:50:52.691Z,2.40
2022-08-04T09:53:32.901Z,2.17
2022-08-04T09:56:05.324Z,2.58
2022-08-04T09:58:42.584Z,2.30
2022-08-04T10:01:12.030Z,2.42
2022-08-04T10:03:41.135Z,2.33
2022-08-04T10:06:18.363Z,2.53
2022-08-04T10:09:01.761Z,2.47
2022-08-04T10:11:55.448Z,2.53
2022-08-04T10:14:35.815Z,2.63
2022-08-04T10:17:09.594Z,2.50
2022-08-04T10:19:40.091Z,2.28
2022-08-04T10:22:28.241Z,2.40
2022-08-04T10:25:05.397Z,2.20
2022-08-04T10:27:57.522Z,2.40
2022-08-04T10:30:26.864Z,2.33
2022-08-04T10:32:57.753Z,2.20
2022-08-04T10:35:27.822Z,2.45
2022-08-04T10:38:02.889Z,2.20
2022-08-04T10:40:40.823Z,2.40
2022-08-04T10:43:22.357Z,1.98
2022-08-04T10:45:57.844Z,2.10
2022-08-04T10:48:34.992Z,1.80
2022-08-04T10:51:06.191Z,1.98
2022-08-04T10:53:49.480Z,2.35
2022-08-04T10:56:21.461Z,2.10
2022-08-04T10:59:06.653Z,2.22
2022-08-04T11:01:50.631Z,2.10
2022-08-04T11:04:40.118Z,2.08
2022-08-04T11:07:09.178Z,2.35
2022-08-04T11:09:37.745Z,2.00
2022-08-04T11:12:08.938Z,2.10
2022-08-04T11:14:42.289Z,1.92
2022-08-04T11:17:13.958Z,2.10
2022-08-04T11:19:48.642Z,2.10
2022-08-04T11:25:13.982Z,2.00
2022-08-04T11:27:46.611Z,2.10
2022-08-04T11:30:17.806Z,2.33
2022-08-04T11:32:49.163Z,2.00
2022-08-04T11:35:23.064Z,2.00
2022-08-04T11:37:54.583Z,2.20
2022-08-04T11:44:00.799Z,1.80
2022-08-04T11:46:18.287Z,1.90
2022-08-04T11:48:51.622Z,1.92
2022-08-04T11:51:22.028Z,1.77
2022-08-04T11:54:05.556Z,1.90
2022-08-04T11:56:37.193Z,2.20
2022-08-04T11:59:35.419Z,2.10
2022-08-04T12:02:23.986Z,1.88
2022-08-04T12:04:57.911Z,1.52
2022-08-04T12:07:37.550Z,2.10
2022-08-04T12:10:16.356Z,1.77
2022-08-04T12:13:20.485Z,1.90
2022-08-04T12:15:56.193Z,1.90
2022-08-04T12:18:30.467Z,1.83
2022-08-04T12:21:04.629Z,1.80
2022-08-04T12:23:36.506Z,1.80
2022-08-04T12:26:09.531Z,1.98
2022-08-04T12:29:11.586Z,1.92
2022-08-04T12:31:33.171Z,2.22
2022-08-04T12:34:06.918Z,2.10
2022-08-04T12:36:39.202Z,1.73
2022-08-04T12:39:11.643Z,1.90
2022-08-04T12:41:42.838Z,1.92
2022-08-04T12:44:37.774Z,2.17
2022-08-04T12:47:25.694Z,2.13
2022-08-04T12:50:13.478Z,2.08
2022-08-04T12:53:00.911Z,1.90
2022-08-04T12:55:33.877Z,1.80
2022-08-04T12:58:04.129Z,1.70
2022-08-04T13:00:41.604Z,1.80
2022-08-04T13:03:13.652Z,1.90
2022-08-04T13:05:44.361Z,2.03
2022-08-04T13:08:24.917Z,1.60
2022-08-04T13:10:55.524Z,1.77
2022-08-04T13:13:26.621Z,1.90
2022-08-04T13:15:59.217Z,2.00
2022-08-04T13:18:32.466Z,2.00
2022-08-04T13:21:21.394Z,1.60
2022-08-04T13:24:20.507Z,1.50
2022-08-04T13:26:55.257Z,1.60
2022-08-04T13:29:59.400Z,1.70
2022-08-04T13:32:30.979Z,1.50
2022-08-04T13:35:54.836Z,1.52
2022-08-04T13:38:15.816Z,1.58
2022-08-04T13:40:45.798Z,1.80
2022-08-04T13:44:16.215Z,1.70
2022-08-04T13:46:16.205Z,2.10
2022-08-04T13:49:25.907Z,1.40
2022-08-04T13:52:00.825Z,1.60
2022-08-04T13:54:42.592Z,1.60
2022-08-04T13:57:15.128Z,1.40
2022-08-04T14:02:33.879Z,1.48
2022-08-04T14:05:06.295Z,1.50
2022-08-04T14:07:48.067Z,1.58
2022-08-04T14:10:18.510Z,1.50
2022-08-04T14:12:48.031Z,1.67
2022-08-04T14:16:01.133Z,1.60
2022-08-04T14:18:25.432Z,1.60
2022-08-04T14:21:01.889Z,1.63
2022-08-04T14:23:33.398Z,1.60
2022-08-04T14:26:14.851Z,1.70
2022-08-04T14:29:08.394Z,1.80
2022-08-04T14:31:31.922Z,1.90
2022-08-04T14:34:09.662Z,1.60
2022-08-04T14:37:13.508Z,1.90
2022-08-04T14:39:39.984Z,1.90
2022-08-04T14:42:10.966Z,1.85
2022-08-04T14:44:54.325Z,1.90
2022-08-04T14:47:52.345Z,3.28
2022-08-04T14:50:21.963Z,3.42
2022-08-04T14:52:50.594Z,3.47
2022-08-04T14:55:20.964Z,3.60
2022-08-04T14:58:37.714Z,3.00
2022-08-04T15:00:40.900Z,3.05
2022-08-04T15:03:10.661Z,2.92
2022-08-04T15:05:55.436Z,2.75
2022-08-04T15:08:35.721Z,2.92
2022-08-04T15:11:04.468Z,2.85
2022-08-04T15:13:35.050Z,3.03
2022-08-04T15:16:08.132Z,2.47
2022-08-04T15:18:39.800Z,2.85
2022-08-04T15:21:08.944Z,2.40
2022-08-04T15:23:38.761Z,2.20
2022-08-04T15:26:09.997Z,2.58
2022-08-04T15:28:41.564Z,2.00
2022-08-04T15:32:06.266Z,2.20
2022-08-04T15:34:04.605Z,2.25
2022-08-04T15:36:56.348Z,2.03
2022-08-04T15:39:33.532Z,2.20
2022-08-04T15:42:14.988Z,2.20
2022-08-04T15:45:04.640Z,2.10
2022-08-04T15:47:33.400Z,2.38
2022-08-04T15:50:09.528Z,2.28
2022-08-04T15:53:01.399Z,2.33
2022-08-04T15:55:40.002Z,2.42
2022-08-04T15:58:09.479Z,2.38
2022-08-04T16:00:55.616Z,2.25
2022-08-04T16:03:57.999Z,2.55
2022-08-04T16:06:46.224Z,2.70
2022-08-04T16:09:46.328Z,2.60
2022-08-04T16:12:52.824Z,2.45
2022-08-04T16:15:36.201Z,2.50
2022-08-04T16:18:04.958Z,2.58
2022-08-04T16:20:34.540Z,2.50
2022-08-04T16:23:08.108Z,2.60
2022-08-04T16:25:46.334Z,2.78
2022-08-04T16:28:30.159Z,2.58
2022-08-04T16:31:02.147Z,2.38
2022-08-04T16:33:43.635Z,2.70
2022-08-04T16:36:16.786Z,2.60
2022-08-04T16:39:06.948Z,2.50
2022-08-04T16:41:41.918Z,2.50
2022-08-04T16:44:51.563Z,2.60
2022-08-04T16:47:38.370Z,2.55
2022-08-04T16:50:07.236Z,2.60
2022-08-04T16:52:43.066Z,2.70
2022-08-04T16:55:13.385Z,2.40
2022-08-04T16:57:41.842Z,2.20
2022-08-04T17:00:11.610Z,2.58
2022-08-04T17:02:40.815Z,2.20
2022-08-04T17:05:38.347Z,2.22
2022-08-04T17:10:59.215Z,2.17
2022-08-04T17:14:02.563Z,2.20
2022-08-04T17:16:21.296Z,2.42
2022-08-04T17:18:51.249Z,2.15
2022-08-04T17:21:20.778Z,2.40
2022-08-04T17:24:14.685Z,2.00
2022-08-04T17:26:45.352Z,2.17
2022-08-04T17:29:21.873Z,1.98
2022-08-04T17:34:33.603Z,2.35
2022-08-04T17:37:36.405Z,2.30
2022-08-04T17:39:53.226Z,2.10
2022-08-04T17:42:31.579Z,2.05
2022-08-04T17:45:39.883Z,2.20
2022-08-04T17:47:57.715Z,1.90
2022-08-04T17:50:26.735Z,2.00
2022-08-04T17:53:01.716Z,2.20
2022-08-04T17:55:39.836Z,2.25
2022-08-04T17:58:20.903Z,2.30
2022-08-04T18:00:51.234Z,2.20
2022-08-04T18:03:24.580Z,2.00
2022-08-04T18:06:03.383Z,2.25
2022-08-04T18:08:45.627Z,2.13
2022-08-04T18:11:22.118Z,2.17
2022-08-04T18:13:56.993Z,2.38
2022-08-04T18:16:27.353Z,2.58
2022-08-04T18:19:12.041Z,2.40
2022-08-04T18:24:35.466Z,2.25
2022-08-04T18:27:18.485Z,2.22
2022-08-04T18:29:50.212Z,2.22
2022-08-04T18:35:22.871Z,2.53
2022-08-04T18:38:06.624Z,2.42
2022-08-04T18:40:52.929Z,2.40
2022-08-04T18:43:30.293Z,2.35
2022-08-04T18:46:14.425Z,2.40
2022-08-04T18:48:57.489Z,2.58
2022-08-04T18:51:31.101Z,2.83
2022-08-04T18:53:59.750Z,2.60
2022-08-04T18:56:31.854Z,2.90
2022-08-04T18:59:03.026Z,2.88
2022-08-04T19:02:13.138Z,3.05
2022-08-04T19:04:49.762Z,2.67
2022-08-04T19:07:29.373Z,3.25
2022-08-04T19:10:23.714Z,3.08
2022-08-04T19:12:55.977Z,4.50
2022-08-04T19:15:33.952Z,4.07
2022-08-04T19:18:07.149Z,4.15
2022-08-04T19:20:43.052Z,3.70
2022-08-04T19:24:10.582Z,4.00
2022-08-04T19:26:04.959Z,4.18
2022-08-04T19:28:37.528Z,3.80
2022-08-04T19:31:07.161Z,3.70
2022-08-04T19:36:19.984Z,3.90
2022-08-04T19:38:48.648Z,3.70
2022-08-04T19:41:18.305Z,4.20
2022-08-04T19:43:47.347Z,3.60
2022-08-04T19:46:17.791Z,3.67
2022-08-04T19:48:59.636Z,4.15
2022-08-04T19:51:29.097Z,4.47
2022-08-04T19:54:03.782Z,4.13
2022-08-04T19:56:40.952Z,4.15
2022-08-04T19:59:11.593Z,4.40
2022-08-04T20:01:45.171Z,4.68
2022-08-04T20:04:15.987Z,4.82
2022-08-04T20:06:44.713Z,4.15
2022-08-04T20:09:25.370Z,4.15
2022-08-04T20:11:55.591Z,4.25
2022-08-04T20:14:32.100Z,4.30
2022-08-04T20:17:09.840Z,4.38
2022-08-04T20:19:40.685Z,4.00
2022-08-04T20:22:52.054Z,4.13
2022-08-04T20:25:18.337Z,4.43
2022-08-04T20:27:59.791Z,4.40
2022-08-04T20:30:29.038Z,4.65
2022-08-04T20:32:57.453Z,4.68
2022-08-04T20:35:28.361Z,4.97
2022-08-04T20:38:00.856Z,4.50
2022-08-04T20:40:30.559Z,4.25
2022-08-04T20:42:59.079Z,4.35
2022-08-04T20:45:55.869Z,4.38
2022-08-04T20:48:16.623Z,3.90
2022-08-04T20:50:48.145Z,3.50
2022-08-04T20:53:17.781Z,3.55
2022-08-04T20:55:54.797Z,3.60
2022-08-04T20:58:27.243Z,3.25
2022-08-04T21:06:50.118Z,3.35
2022-08-04T21:09:26.604Z,3.20
2022-08-04T21:12:07.583Z,3.08
2022-08-04T21:14:36.731Z,3.17
2022-08-04T21:17:20.997Z,3.50
2022-08-04T21:20:12.689Z,3.28
2022-08-04T21:22:43.219Z,3.35
2022-08-04T21:25:16.121Z,3.42
2022-08-04T21:27:45.400Z,3.53
2022-08-04T21:30:25.955Z,3.13
2022-08-04T21:32:55.960Z,2.95
2022-08-04T21:35:36.907Z,3.50
2022-08-04T21:38:17.348Z,3.25
2022-08-04T21:40:53.554Z,3.30
2022-08-04T21:43:23.479Z,3.33
2022-08-04T21:45:56.746Z,3.67
2022-08-04T21:48:35.459Z,3.03
2022-08-04T21:51:21.812Z,3.40
2022-08-04T21:54:09.134Z,3.38
2022-08-04T21:56:38.210Z,3.65
2022-08-04T21:59:11.452Z,3.42
2022-08-04T22:04:31.452Z,3.28
2022-08-04T22:07:02.731Z,3.67
2022-08-04T22:09:38.733Z,3.50
2022-08-04T22:12:11.955Z,3.53
2022-08-04T22:14:41.257Z,3.88
2022-08-04T22:17:13.578Z,3.58
2022-08-04T22:19:56.340Z,3.63
2022-08-04T22:22:29.138Z,3.55
2022-08-04T22:25:12.273Z,3.10
2022-08-04T22:28:00.954Z,3.22
2022-08-04T22:30:36.594Z,3.58
2022-08-04T22:33:07.674Z,3.20
2022-08-04T22:35:49.103Z,3.10
2022-08-04T22:38:20.855Z,3.38
2022-08-04T22:40:59.234Z,3.65
2022-08-04T22:43:33.569Z,3.75
2022-08-04T22:46:03.971Z,3.80
2022-08-04T22:48:33.728Z,4.00
2022-08-04T22:51:02.728Z,4.00
2022-08-04T22:53:32.400Z,3.80
2022-08-04T22:56:09.538Z,4.50
2022-08-04T22:58:40.066Z,4.32
2022-08-04T23:01:09.292Z,4.43
2022-08-04T23:03:38.462Z,4.40
2022-08-04T23:06:11.022Z,4.55
2022-08-04T23:08:43.345Z,5.05
2022-08-04T23:11:16.426Z,5.00
2022-08-04T23:13:44.970Z,5.90
2022-08-04T23:16:13.543Z,6.97
2022-08-04T23:18:48.238Z,6.95
2022-08-04T23:21:17.402Z,8.20
2022-08-04T23:24:00.677Z,8.43
2022-08-04T23:26:32.738Z,8.77
2022-08-04T23:29:03.740Z,9.35
2022-08-04T23:31:48.282Z,10.15
2022-08-04T23:34:21.123Z,10.82
2022-08-04T23:36:50.448Z,11.70
2022-08-04T23:39:18.936Z,12.50
2022-08-04T23:41:53.480Z,13.40
2022-08-04T23:44:24.990Z,14.27
2022-08-04T23:46:58.839Z,14.48
2022-08-04T23:49:43.926Z,14.50
2022-08-04T23:52:23.521Z,14.40
2022-08-04T23:54:59.304Z,13.98
2022-08-04T23:58:02.230Z,14.07
